createdAt,value
2017-11-14T00:00:31.996Z,9.29
2017-11-14T00:01:12.553Z,9.23
2017-11-14T00:01:53.154Z,9.23
2017-11-14T00:02:33.676Z,9.26
2017-11-14T00:03:14.201Z,9.31
2017-11-14T00:03:54.762Z,9.28
2017-11-14T00:04:35.336Z,9.31
2017-11-14T00:05:15.890Z,9.26
2017-11-14T00:05:56.419Z,9.23
2017-11-14T00:06:36.971Z,9.26
2017-11-14T00:07:17.582Z,9.33
2017-11-14T00:07:58.094Z,9.28
2017-11-14T00:08:38.633Z,9.4
2017-11-14T00:09:19.187Z,9.23
2017-11-14T00:09:59.730Z,9.29
2017-11-14T00:10:40.263Z,9.24
2017-11-14T00:11:20.856Z,9.26
2017-11-14T00:12:01.369Z,9.36
2017-11-14T00:12:41.934Z,9.4
2017-11-14T00:13:22.498Z,9.32
2017-11-14T00:14:03.111Z,9.35
2017-11-14T00:14:43.650Z,9.35
2017-11-14T00:15:24.190Z,9.36
2017-11-14T00:16:04.737Z,9.38
2017-11-14T00:16:45.326Z,9.4
2017-11-14T00:17:25.853Z,9.39
2017-11-14T00:18:06.401Z,9.39
2017-11-14T00:18:46.908Z,9.38
2017-11-14T00:19:27.469Z,9.35
2017-11-14T00:20:08.005Z,9.28
2017-11-14T00:20:48.538Z,9.36
2017-11-14T00:21:29.120Z,9.43
2017-11-14T00:22:09.674Z,9.38
2017-11-14T00:22:50.185Z,9.36
2017-11-14T00:23:30.692Z,9.13
2017-11-14T00:24:11.249Z,9.15
2017-11-14T00:24:51.967Z,9.2
2017-11-14T00:25:32.396Z,9.17
2017-11-14T00:26:12.917Z,9.23
2017-11-14T00:26:53.923Z,9.29
2017-11-14T00:27:34.450Z,9.33
2017-11-14T00:28:15.027Z,9.4
2017-11-14T00:28:55.557Z,9.23
2017-11-14T00:29:36.125Z,9.35
2017-11-14T00:30:17.516Z,9.24
2017-11-14T00:30:58.057Z,9.36
2017-11-14T00:31:38.592Z,9.35
2017-11-14T00:32:19.161Z,9.29
2017-11-14T00:32:59.666Z,9.31
2017-11-14T00:33:40.229Z,9.36
2017-11-14T00:34:20.779Z,9.35
2017-11-14T00:35:01.296Z,9.29
2017-11-14T00:35:41.852Z,9.28
2017-11-14T00:36:22.380Z,9.29
2017-11-14T00:37:02.934Z,9.26
2017-11-14T00:37:43.413Z,9.28
2017-11-14T00:38:23.984Z,9.29
2017-11-14T00:39:04.487Z,9.23
2017-11-14T00:39:45.021Z,9.38
2017-11-14T00:40:25.587Z,9.28
2017-11-14T00:41:06.130Z,9.08
2017-11-14T00:41:46.678Z,9.23
2017-11-14T00:42:27.218Z,9.28
2017-11-14T00:43:07.823Z,9.21
2017-11-14T00:43:48.371Z,9.23
2017-11-14T00:44:28.921Z,9.17
2017-11-14T00:45:09.499Z,9.1
2017-11-14T00:45:50.048Z,9.1
2017-11-14T00:46:30.608Z,9.14
2017-11-14T00:47:11.201Z,9.21
2017-11-14T00:47:51.728Z,9.11
2017-11-14T00:48:32.295Z,9.15
2017-11-14T00:49:12.823Z,9.17
2017-11-14T00:49:53.381Z,9.26
2017-11-14T00:50:33.937Z,9.26
2017-11-14T00:51:14.651Z,9.31
2017-11-14T00:51:55.178Z,9.29
2017-11-14T00:52:35.722Z,9.39
2017-11-14T00:53:16.263Z,9.33
2017-11-14T00:53:56.812Z,9.39
2017-11-14T00:54:37.374Z,9.33
2017-11-14T00:55:17.955Z,9.26
2017-11-14T00:55:58.541Z,9.26
2017-11-14T00:56:39.115Z,9.24
2017-11-14T00:57:19.654Z,9.29
2017-11-14T00:58:00.190Z,9.31
2017-11-14T00:58:40.735Z,9.39
2017-11-14T00:59:21.282Z,9.35
2017-11-14T01:00:01.813Z,9.38
2017-11-14T01:00:42.319Z,9.32
2017-11-14T01:01:22.921Z,9.35
2017-11-14T01:02:03.483Z,9.36
2017-11-14T01:02:44.020Z,9.38
2017-11-14T01:03:24.542Z,9.36
2017-11-14T01:04:05.082Z,9.4
2017-11-14T01:04:45.610Z,9.48
2017-11-14T01:05:26.133Z,9.47
2017-11-14T01:06:06.734Z,9.51
2017-11-14T01:06:47.218Z,9.47
2017-11-14T01:07:27.818Z,9.39
2017-11-14T01:08:08.354Z,9.43
2017-11-14T01:08:48.899Z,9.51
2017-11-14T01:09:29.401Z,9.53
2017-11-14T01:10:09.974Z,9.53
2017-11-14T01:10:50.491Z,9.5
2017-11-14T01:11:31.036Z,9.38
2017-11-14T01:12:11.568Z,9.36
2017-11-14T01:12:52.120Z,9.38
2017-11-14T01:13:32.663Z,9.5
2017-11-14T01:14:13.200Z,9.39
2017-11-14T01:14:53.748Z,9.31
2017-11-14T01:15:34.321Z,9.35
2017-11-14T01:16:14.885Z,9.4
2017-11-14T01:16:55.450Z,9.33
2017-11-14T01:17:36.039Z,9.35
2017-11-14T01:18:16.587Z,9.38
2017-11-14T01:18:57.151Z,9.4
2017-11-14T01:19:37.676Z,9.5
2017-11-14T01:20:18.221Z,9.5
2017-11-14T01:20:58.773Z,9.56
2017-11-14T01:21:39.317Z,9.5
2017-11-14T01:22:19.822Z,9.51
2017-11-14T01:23:00.366Z,9.47
2017-11-14T01:23:40.901Z,9.48
2017-11-14T01:24:21.488Z,9.5
2017-11-14T01:25:02.029Z,9.38
2017-11-14T01:25:42.565Z,9.4
2017-11-14T01:26:23.125Z,9.38
2017-11-14T01:27:03.688Z,9.35
2017-11-14T01:27:44.242Z,9.36
2017-11-14T01:28:24.789Z,9.39
2017-11-14T01:29:05.313Z,9.54
2017-11-14T01:29:45.863Z,9.5
2017-11-14T01:30:26.448Z,9.51
2017-11-14T01:31:06.970Z,9.5
2017-11-14T01:31:47.475Z,9.4
2017-11-14T01:32:28.037Z,9.5
2017-11-14T01:33:08.564Z,9.54
2017-11-14T01:33:49.067Z,9.4
2017-11-14T01:34:29.621Z,9.39
2017-11-14T01:35:10.171Z,9.5
2017-11-14T01:35:50.688Z,9.48
2017-11-14T01:36:31.242Z,9.42
2017-11-14T01:37:11.768Z,9.5
2017-11-14T01:37:52.339Z,9.35
2017-11-14T01:38:32.875Z,9.4
2017-11-14T01:39:13.398Z,9.26
2017-11-14T01:39:53.920Z,9.46
2017-11-14T01:40:34.466Z,9.38
2017-11-14T01:41:15.009Z,9.46
2017-11-14T01:41:55.582Z,9.42
2017-11-14T01:42:36.155Z,9.35
2017-11-14T01:43:16.701Z,9.35
2017-11-14T01:43:57.212Z,9.42
2017-11-14T01:44:37.766Z,9.36
2017-11-14T01:45:18.322Z,9.36
2017-11-14T01:45:58.874Z,9.35
2017-11-14T01:46:39.421Z,9.39
2017-11-14T01:47:19.985Z,9.32
2017-11-14T01:48:00.540Z,9.39
2017-11-14T01:48:41.087Z,9.23
2017-11-14T01:49:21.674Z,9.43
2017-11-14T01:50:02.218Z,9.33
2017-11-14T01:50:42.794Z,9.24
2017-11-14T01:51:23.320Z,9.26
2017-11-14T01:52:03.842Z,9.38
2017-11-14T01:52:44.399Z,9.38
2017-11-14T01:53:24.974Z,9.38
2017-11-14T01:54:05.445Z,9.38
2017-11-14T01:54:46.014Z,9.39
2017-11-14T01:55:26.572Z,9.38
2017-11-14T01:56:07.094Z,9.38
2017-11-14T01:56:47.637Z,9.56
2017-11-14T01:57:28.199Z,9.56
2017-11-14T01:58:08.707Z,9.57
2017-11-14T01:58:49.256Z,9.51
2017-11-14T01:59:29.797Z,9.58
2017-11-14T02:00:10.323Z,9.56
2017-11-14T02:00:50.861Z,9.53
2017-11-14T02:01:31.421Z,9.43
2017-11-14T02:02:11.978Z,9.5
2017-11-14T02:02:52.537Z,9.53
2017-11-14T02:03:33.063Z,9.57
2017-11-14T02:04:13.627Z,9.57
2017-11-14T02:04:54.224Z,9.51
2017-11-14T02:05:34.763Z,9.47
2017-11-14T02:06:15.290Z,9.38
2017-11-14T02:06:55.815Z,9.36
2017-11-14T02:07:36.388Z,9.48
2017-11-14T02:08:16.948Z,9.4
2017-11-14T02:08:57.488Z,9.36
2017-11-14T02:09:37.991Z,9.38
2017-11-14T02:10:18.531Z,9.36
2017-11-14T02:10:59.091Z,9.35
2017-11-14T02:11:39.636Z,9.35
2017-11-14T02:12:20.192Z,9.39
2017-11-14T02:13:00.735Z,9.35
2017-11-14T02:13:41.301Z,9.38
2017-11-14T02:14:21.882Z,9.38
2017-11-14T02:15:02.431Z,9.36
2017-11-14T02:15:42.978Z,9.48
2017-11-14T02:16:23.559Z,9.51
2017-11-14T02:17:04.096Z,9.43
2017-11-14T02:17:44.620Z,9.43
2017-11-14T02:18:25.182Z,9.4
2017-11-14T02:19:05.713Z,9.5
2017-11-14T02:19:46.283Z,9.46
2017-11-14T02:20:26.840Z,9.43
2017-11-14T02:21:07.365Z,9.56
2017-11-14T02:21:47.908Z,9.48
2017-11-14T02:22:28.454Z,9.38
2017-11-14T02:23:09.017Z,9.36
2017-11-14T02:23:49.563Z,9.4
2017-11-14T02:24:30.117Z,9.38
2017-11-14T02:25:10.636Z,9.46
2017-11-14T02:25:51.196Z,9.38
2017-11-14T02:26:31.730Z,9.51
2017-11-14T02:27:12.307Z,9.57
2017-11-14T02:27:52.874Z,9.6
2017-11-14T02:28:33.418Z,9.58
2017-11-14T02:29:13.971Z,9.6
2017-11-14T02:29:54.489Z,9.71
2017-11-14T02:30:35.088Z,9.66
2017-11-14T02:31:15.619Z,9.61
2017-11-14T02:31:56.174Z,9.61
2017-11-14T02:32:36.718Z,9.61
2017-11-14T02:33:17.296Z,9.66
2017-11-14T02:33:57.854Z,9.71
2017-11-14T02:34:38.486Z,9.58
2017-11-14T02:35:19.018Z,9.64
2017-11-14T02:35:59.508Z,9.5
2017-11-14T02:36:40.057Z,9.6
2017-11-14T02:37:20.634Z,9.64
2017-11-14T02:38:01.169Z,9.64
2017-11-14T02:38:41.663Z,9.68
2017-11-14T02:39:22.211Z,9.74
2017-11-14T02:40:02.788Z,9.6
2017-11-14T02:40:43.387Z,9.71
2017-11-14T02:41:23.993Z,9.75
2017-11-14T02:42:04.522Z,9.64
2017-11-14T02:42:45.061Z,9.66
2017-11-14T02:43:25.591Z,9.66
2017-11-14T02:44:06.155Z,9.61
2017-11-14T02:44:46.650Z,9.61
2017-11-14T02:45:27.202Z,9.6
2017-11-14T02:46:07.769Z,9.66
2017-11-14T02:46:48.279Z,9.53
2017-11-14T02:47:28.847Z,9.58
2017-11-14T02:48:09.376Z,9.66
2017-11-14T02:48:49.917Z,9.68
2017-11-14T02:49:30.456Z,9.74
2017-11-14T02:50:10.997Z,9.75
2017-11-14T02:50:51.539Z,9.68
2017-11-14T02:51:32.096Z,9.74
2017-11-14T02:52:12.641Z,9.68
2017-11-14T02:52:53.167Z,9.61
2017-11-14T02:53:33.724Z,9.58
2017-11-14T02:54:14.297Z,9.57
2017-11-14T02:54:54.846Z,9.6
2017-11-14T02:55:35.400Z,9.61
2017-11-14T02:56:15.967Z,9.65
2017-11-14T02:56:56.521Z,9.71
2017-11-14T02:57:37.081Z,9.68
2017-11-14T02:58:17.630Z,9.68
2017-11-14T02:58:58.186Z,9.65
2017-11-14T02:59:38.758Z,9.75
2017-11-14T03:00:19.361Z,9.69
2017-11-14T03:00:59.861Z,9.71
2017-11-14T03:01:40.385Z,9.71
2017-11-14T03:02:20.949Z,9.75
2017-11-14T03:03:01.503Z,9.76
2017-11-14T03:03:42.041Z,9.71
2017-11-14T03:04:22.596Z,9.75
2017-11-14T03:05:03.154Z,9.74
2017-11-14T03:05:43.688Z,9.71
2017-11-14T03:06:24.265Z,9.72
2017-11-14T03:07:04.822Z,9.72
2017-11-14T03:07:45.404Z,9.74
2017-11-14T03:08:25.952Z,9.69
2017-11-14T03:09:06.480Z,9.71
2017-11-14T03:09:47.032Z,9.71
2017-11-14T03:10:27.562Z,9.66
2017-11-14T03:11:08.134Z,9.72
2017-11-14T03:11:48.651Z,9.68
2017-11-14T03:12:29.231Z,9.66
2017-11-14T03:13:09.831Z,9.69
2017-11-14T03:13:50.371Z,9.69
2017-11-14T03:14:30.919Z,9.65
2017-11-14T03:15:11.464Z,9.58
2017-11-14T03:15:52.005Z,9.58
2017-11-14T03:16:32.546Z,9.6
2017-11-14T03:17:13.085Z,9.56
2017-11-14T03:17:53.637Z,9.6
2017-11-14T03:18:34.185Z,9.58
2017-11-14T03:19:14.769Z,9.57
2017-11-14T03:19:55.295Z,9.66
2017-11-14T03:20:35.853Z,9.64
2017-11-14T03:21:16.390Z,9.6
2017-11-14T03:21:56.917Z,9.61
2017-11-14T03:22:37.481Z,9.64
2017-11-14T03:23:18.036Z,9.58
2017-11-14T03:23:58.564Z,9.68
2017-11-14T03:24:39.149Z,9.56
2017-11-14T03:25:19.692Z,9.58
2017-11-14T03:26:00.279Z,9.6
2017-11-14T03:26:40.825Z,9.61
2017-11-14T03:27:21.396Z,9.64
2017-11-14T03:28:01.922Z,9.58
2017-11-14T03:28:42.453Z,9.57
2017-11-14T03:29:23.023Z,9.58
2017-11-14T03:30:03.533Z,9.54
2017-11-14T03:30:44.056Z,9.6
2017-11-14T03:31:24.603Z,9.61
2017-11-14T03:32:05.191Z,9.61
2017-11-14T03:32:45.735Z,9.61
2017-11-14T03:33:26.268Z,9.66
2017-11-14T03:34:06.831Z,9.61
2017-11-14T03:34:47.354Z,9.65
2017-11-14T03:35:27.882Z,9.71
2017-11-14T03:36:08.476Z,9.71
2017-11-14T03:36:49.021Z,9.74
2017-11-14T03:37:29.639Z,9.76
2017-11-14T03:38:10.158Z,9.74
2017-11-14T03:38:50.651Z,9.65
2017-11-14T03:39:31.199Z,9.6
2017-11-14T03:40:11.724Z,9.58
2017-11-14T03:40:52.264Z,9.65
2017-11-14T03:41:32.781Z,9.66
2017-11-14T03:42:13.324Z,9.51
2017-11-14T03:42:53.876Z,9.51
2017-11-14T03:43:34.428Z,9.57
2017-11-14T03:44:14.976Z,9.56
2017-11-14T03:44:55.744Z,9.6
2017-11-14T03:45:36.291Z,9.57
2017-11-14T03:46:16.846Z,9.58
2017-11-14T03:46:57.421Z,9.64
2017-11-14T03:47:37.959Z,9.6
2017-11-14T03:48:18.489Z,9.65
2017-11-14T03:48:59.071Z,9.68
2017-11-14T03:49:39.584Z,9.64
2017-11-14T03:50:20.123Z,9.71
2017-11-14T03:51:00.636Z,9.54
2017-11-14T03:51:41.209Z,9.61
2017-11-14T03:52:21.747Z,9.51
2017-11-14T03:53:02.300Z,9.47
2017-11-14T03:53:42.835Z,9.35
2017-11-14T03:54:25.224Z,9.39
2017-11-14T03:55:05.784Z,9.39
2017-11-14T03:55:46.313Z,9.53
2017-11-14T03:56:26.847Z,9.5
2017-11-14T03:57:07.406Z,9.47
2017-11-14T03:57:47.947Z,9.54
2017-11-14T03:58:31.312Z,9.54
2017-11-14T03:59:11.899Z,9.33
2017-11-14T03:59:52.437Z,9.47
2017-11-14T04:00:33.003Z,9.46
2017-11-14T04:01:13.540Z,9.38
2017-11-14T04:01:54.095Z,9.31
2017-11-14T04:02:34.648Z,9.31
2017-11-14T04:03:15.180Z,9.36
2017-11-14T04:03:55.725Z,9.35
2017-11-14T04:04:36.287Z,9.39
2017-11-14T04:05:16.823Z,9.4
2017-11-14T04:05:57.377Z,9.39
2017-11-14T04:06:37.924Z,9.38
2017-11-14T04:07:18.451Z,9.38
2017-11-14T04:07:58.995Z,9.5
2017-11-14T04:08:39.538Z,9.47
2017-11-14T04:09:20.076Z,9.43
2017-11-14T04:10:00.628Z,9.58
2017-11-14T04:10:41.189Z,9.47
2017-11-14T04:11:21.715Z,9.6
2017-11-14T04:12:02.283Z,9.5
2017-11-14T04:12:42.819Z,9.54
2017-11-14T04:13:23.366Z,9.51
2017-11-14T04:14:03.924Z,9.56
2017-11-14T04:14:44.476Z,9.5
2017-11-14T04:15:25.032Z,9.51
2017-11-14T04:16:05.617Z,9.58
2017-11-14T04:16:46.135Z,9.56
2017-11-14T04:17:26.702Z,9.56
2017-11-14T04:18:07.264Z,9.58
2017-11-14T04:18:47.787Z,9.6
2017-11-14T04:19:28.329Z,9.58
2017-11-14T04:20:08.892Z,9.65
2017-11-14T04:20:49.424Z,9.6
2017-11-14T04:21:29.977Z,9.6
2017-11-14T04:22:10.553Z,9.65
2017-11-14T04:22:51.116Z,9.57
2017-11-14T04:23:31.668Z,9.51
2017-11-14T04:24:12.242Z,9.43
2017-11-14T04:24:52.820Z,9.53
2017-11-14T04:25:33.377Z,9.53
2017-11-14T04:26:13.899Z,9.5
2017-11-14T04:26:54.443Z,9.5
2017-11-14T04:27:34.996Z,9.57
2017-11-14T04:28:15.577Z,9.53
2017-11-14T04:28:56.093Z,9.58
2017-11-14T04:29:36.647Z,9.58
2017-11-14T04:30:17.188Z,9.57
2017-11-14T04:30:57.761Z,9.57
2017-11-14T04:31:38.302Z,9.65
2017-11-14T04:32:18.864Z,9.64
2017-11-14T04:32:59.425Z,9.61
2017-11-14T04:33:40.074Z,9.66
2017-11-14T04:34:20.627Z,9.64
2017-11-14T04:35:01.146Z,9.68
2017-11-14T04:35:41.703Z,9.74
2017-11-14T04:36:22.261Z,9.74
2017-11-14T04:37:02.799Z,9.69
2017-11-14T04:37:43.373Z,9.6
2017-11-14T04:38:23.905Z,9.58
2017-11-14T04:39:04.426Z,9.53
2017-11-14T04:39:45.022Z,9.58
2017-11-14T04:40:25.575Z,9.58
2017-11-14T04:41:06.706Z,9.51
2017-11-14T04:41:47.609Z,9.51
2017-11-14T04:42:28.158Z,9.56
2017-11-14T04:43:08.709Z,9.48
2017-11-14T04:43:49.253Z,9.47
2017-11-14T04:44:29.812Z,9.54
2017-11-14T04:45:10.345Z,9.5
2017-11-14T04:45:50.932Z,9.58
2017-11-14T04:46:31.456Z,9.58
2017-11-14T04:47:12.021Z,9.61
2017-11-14T04:47:52.571Z,9.58
2017-11-14T04:48:33.122Z,9.56
2017-11-14T04:49:13.656Z,9.64
2017-11-14T04:49:54.201Z,9.69
2017-11-14T04:50:35.020Z,9.61
2017-11-14T04:51:15.559Z,9.57
2017-11-14T04:51:56.123Z,9.58
2017-11-14T04:52:36.655Z,9.57
2017-11-14T04:53:17.180Z,9.51
2017-11-14T04:53:57.779Z,9.51
2017-11-14T04:54:38.326Z,9.61
2017-11-14T04:55:18.946Z,9.72
2017-11-14T04:55:59.485Z,9.61
2017-11-14T04:56:40.032Z,9.65
2017-11-14T04:57:20.565Z,9.66
2017-11-14T04:58:01.124Z,9.57
2017-11-14T04:58:41.684Z,9.58
2017-11-14T04:59:22.235Z,9.6
2017-11-14T05:00:02.752Z,9.61
2017-11-14T05:00:43.288Z,9.61
2017-11-14T05:01:23.828Z,9.66
2017-11-14T05:02:04.374Z,9.57
2017-11-14T05:02:44.918Z,9.64
2017-11-14T05:03:25.478Z,9.66
2017-11-14T05:04:06.011Z,9.71
2017-11-14T05:04:46.573Z,9.6
2017-11-14T05:05:27.115Z,9.53
2017-11-14T05:06:07.645Z,9.48
2017-11-14T05:06:48.195Z,9.5
2017-11-14T05:07:28.773Z,9.48
2017-11-14T05:08:09.295Z,9.6
2017-11-14T05:08:49.855Z,9.6
2017-11-14T05:09:30.357Z,9.66
2017-11-14T05:10:10.905Z,9.66
2017-11-14T05:10:51.460Z,9.58
2017-11-14T05:11:31.985Z,9.6
2017-11-14T05:12:12.514Z,9.66
2017-11-14T05:12:53.042Z,9.69
2017-11-14T05:13:33.577Z,9.66
2017-11-14T05:14:14.106Z,9.69
2017-11-14T05:16:26.889Z,9.57
2017-11-14T05:17:07.439Z,9.58
2017-11-14T05:17:48.006Z,9.65
2017-11-14T05:18:28.547Z,9.74
2017-11-14T05:19:09.111Z,9.66
2017-11-14T05:19:49.665Z,9.66
2017-11-14T05:20:30.219Z,9.61
2017-11-14T05:21:10.774Z,9.65
2017-11-14T05:21:51.428Z,9.65
2017-11-14T05:22:31.968Z,9.61
2017-11-14T05:23:12.511Z,9.64
2017-11-14T05:23:53.064Z,9.61
2017-11-14T05:24:33.658Z,9.68
2017-11-14T05:25:14.193Z,9.76
2017-11-14T05:25:54.767Z,9.75
2017-11-14T05:26:35.338Z,9.69
2017-11-14T05:27:15.881Z,9.72
2017-11-14T05:27:56.476Z,9.68
2017-11-14T05:28:37.025Z,9.69
2017-11-14T05:29:17.585Z,9.69
2017-11-14T05:29:58.125Z,9.72
2017-11-14T05:30:38.739Z,9.74
2017-11-14T05:31:19.283Z,9.74
2017-11-14T05:31:59.809Z,9.74
2017-11-14T05:32:40.381Z,9.58
2017-11-14T05:33:20.984Z,9.66
2017-11-14T05:34:01.704Z,9.68
2017-11-14T05:34:42.130Z,9.79
2017-11-14T05:35:22.687Z,9.72
2017-11-14T05:36:03.238Z,9.72
2017-11-14T05:36:43.789Z,9.69
2017-11-14T05:37:24.333Z,9.71
2017-11-14T05:38:04.867Z,9.68
2017-11-14T05:38:45.438Z,9.68
2017-11-14T05:39:25.997Z,9.75
2017-11-14T05:40:06.842Z,9.78
2017-11-14T05:40:47.413Z,9.68
2017-11-14T05:41:27.965Z,9.68
2017-11-14T05:42:08.461Z,9.69
2017-11-14T05:42:48.983Z,9.75
2017-11-14T05:43:29.521Z,9.68
2017-11-14T05:44:10.048Z,9.71
2017-11-14T05:44:50.737Z,9.68
2017-11-14T05:45:31.360Z,9.81
2017-11-14T05:46:11.953Z,9.68
2017-11-14T05:46:52.366Z,9.79
2017-11-14T05:47:32.903Z,9.83
2017-11-14T05:48:13.466Z,9.76
2017-11-14T05:48:54.010Z,9.68
2017-11-14T05:49:34.571Z,9.78
2017-11-14T05:50:15.067Z,9.72
2017-11-14T05:50:55.650Z,9.71
2017-11-14T05:51:36.259Z,9.66
2017-11-14T05:52:16.866Z,9.76
2017-11-14T05:52:57.536Z,9.83
2017-11-14T05:53:38.122Z,9.72
2017-11-14T05:54:18.640Z,9.78
2017-11-14T05:54:59.150Z,9.83
2017-11-14T05:55:39.716Z,9.75
2017-11-14T05:56:20.783Z,9.83
2017-11-14T05:57:01.345Z,9.74
2017-11-14T05:57:41.880Z,9.68
2017-11-14T05:58:22.447Z,9.71
2017-11-14T05:59:02.992Z,9.79
2017-11-14T05:59:43.510Z,9.72
2017-11-14T06:00:24.058Z,9.74
2017-11-14T06:01:04.612Z,9.76
2017-11-14T06:01:45.176Z,9.78
2017-11-14T06:02:25.722Z,9.79
2017-11-14T06:03:06.260Z,9.78
2017-11-14T06:03:46.818Z,9.78
2017-11-14T06:04:27.371Z,9.71
2017-11-14T06:05:07.978Z,9.71
2017-11-14T06:05:48.507Z,9.81
2017-11-14T06:06:29.065Z,9.74
2017-11-14T06:07:09.575Z,9.79
2017-11-14T06:07:50.144Z,9.72
2017-11-14T06:08:30.712Z,9.76
2017-11-14T06:09:11.400Z,9.74
2017-11-14T06:09:51.890Z,9.71
2017-11-14T06:10:32.486Z,9.81
2017-11-14T06:11:13.043Z,9.86
2017-11-14T06:11:53.566Z,9.81
2017-11-14T06:12:34.124Z,9.84
2017-11-14T06:13:14.718Z,9.72
2017-11-14T06:13:55.311Z,9.81
2017-11-14T06:14:35.865Z,9.72
2017-11-14T06:15:16.505Z,9.79
2017-11-14T06:15:56.978Z,9.69
2017-11-14T06:16:37.516Z,9.66
2017-11-14T06:17:18.145Z,9.68
2017-11-14T06:17:58.700Z,9.6
2017-11-14T06:18:39.183Z,9.58
2017-11-14T06:19:19.772Z,9.5
2017-11-14T06:20:00.301Z,9.54
2017-11-14T06:20:40.828Z,9.39
2017-11-14T06:21:21.370Z,9.39
2017-11-14T06:22:01.989Z,9.5
2017-11-14T06:22:42.614Z,9.47
2017-11-14T06:23:23.080Z,9.54
2017-11-14T06:24:03.609Z,9.54
2017-11-14T06:24:44.166Z,9.53
2017-11-14T06:25:24.676Z,9.51
2017-11-14T06:26:05.249Z,9.51
2017-11-14T06:26:45.764Z,9.51
2017-11-14T06:27:26.317Z,9.57
2017-11-14T06:28:06.852Z,9.48
2017-11-14T06:28:47.561Z,9.54
2017-11-14T06:29:28.075Z,9.54
2017-11-14T06:30:08.660Z,9.58
2017-11-14T06:30:49.240Z,9.65
2017-11-14T06:31:29.794Z,9.65
2017-11-14T06:32:10.571Z,9.65
2017-11-14T06:32:51.334Z,9.69
2017-11-14T06:33:31.939Z,9.75
2017-11-14T06:34:12.557Z,9.71
2017-11-14T06:34:53.152Z,9.69
2017-11-14T06:35:33.726Z,9.79
2017-11-14T06:36:14.297Z,9.71
2017-11-14T06:36:54.826Z,9.75
2017-11-14T06:37:35.415Z,9.74
2017-11-14T06:38:16.326Z,9.75
2017-11-14T06:38:56.876Z,9.75
2017-11-14T06:39:37.369Z,9.74
2017-11-14T06:40:18.395Z,9.76
2017-11-14T06:40:58.972Z,9.68
2017-11-14T06:41:39.527Z,9.78
2017-11-14T06:42:20.097Z,9.74
2017-11-14T06:43:00.652Z,9.72
2017-11-14T06:43:41.212Z,9.75
2017-11-14T06:44:21.754Z,9.81
2017-11-14T06:45:02.298Z,9.86
2017-11-14T06:45:42.867Z,9.9
2017-11-14T06:46:23.386Z,9.96
2017-11-14T06:47:04.910Z,9.91
2017-11-14T06:47:45.507Z,9.86
2017-11-14T06:48:26.079Z,9.81
2017-11-14T06:49:06.627Z,9.84
2017-11-14T06:49:47.156Z,9.78
2017-11-14T06:50:27.712Z,9.78
2017-11-14T06:51:08.276Z,9.75
2017-11-14T06:51:48.828Z,9.78
2017-11-14T06:52:29.383Z,9.72
2017-11-14T06:53:10.603Z,9.81
2017-11-14T06:53:50.571Z,9.83
2017-11-14T06:54:31.134Z,9.76
2017-11-14T06:55:11.681Z,9.86
2017-11-14T06:55:52.209Z,9.83
2017-11-14T06:56:32.723Z,9.81
2017-11-14T06:57:13.264Z,9.83
2017-11-14T06:57:53.833Z,9.93
2017-11-14T06:58:34.371Z,10.01
2017-11-14T06:59:14.914Z,10.02
2017-11-14T06:59:55.475Z,9.9
2017-11-14T07:00:36.003Z,9.94
2017-11-14T07:01:16.580Z,9.96
2017-11-14T07:01:57.130Z,9.96
2017-11-14T07:02:37.659Z,9.94
2017-11-14T07:03:18.251Z,9.94
2017-11-14T07:03:58.845Z,9.99
2017-11-14T07:04:39.390Z,10.02
2017-11-14T07:05:20.076Z,10.05
2017-11-14T07:06:00.603Z,10.07
2017-11-14T07:06:41.143Z,10.11
2017-11-14T07:07:21.737Z,10.09
2017-11-14T07:08:02.227Z,10.15
2017-11-14T07:08:42.793Z,10.02
2017-11-14T07:09:23.375Z,10.04
2017-11-14T07:10:03.892Z,9.99
2017-11-14T07:10:44.510Z,10.15
2017-11-14T07:11:25.177Z,10.6
2017-11-14T07:12:06.008Z,10.59
2017-11-14T07:12:46.401Z,10.56
2017-11-14T07:13:26.929Z,10.68
2017-11-14T07:14:07.492Z,10.76
2017-11-14T07:14:47.997Z,10.55
2017-11-14T07:15:28.560Z,10.61
2017-11-14T07:16:09.041Z,10.55
2017-11-14T07:16:49.597Z,10.27
2017-11-14T07:17:30.097Z,10.3
2017-11-14T07:18:10.720Z,10.15
2017-11-14T07:18:51.213Z,10.07
2017-11-14T07:19:31.709Z,10.07
2017-11-14T07:20:12.265Z,10.07
2017-11-14T07:20:52.824Z,10.07
2017-11-14T07:21:33.404Z,10.17
2017-11-14T07:22:14.295Z,10.18
2017-11-14T07:22:54.930Z,10.22
2017-11-14T07:23:35.622Z,10.34
2017-11-14T07:24:16.050Z,10.42
2017-11-14T07:24:56.662Z,10.4
2017-11-14T07:25:37.150Z,10.55
2017-11-14T07:26:17.695Z,10.34
2017-11-14T07:26:58.416Z,10.36
2017-11-14T07:27:38.982Z,10.4
2017-11-14T07:28:19.526Z,10.36
2017-11-14T07:29:00.109Z,10.45
2017-11-14T07:29:40.756Z,10.56
2017-11-14T07:30:21.310Z,10.63
2017-11-14T07:31:01.876Z,10.82
2017-11-14T07:31:42.407Z,10.7
2017-11-14T07:32:22.959Z,10.44
2017-11-14T07:33:03.497Z,10.23
2017-11-14T07:33:44.071Z,10.12
2017-11-14T07:34:24.552Z,10.02
2017-11-14T07:35:05.216Z,10.05
2017-11-14T07:35:45.750Z,10.02
2017-11-14T07:36:26.375Z,10.2
2017-11-14T07:37:07.024Z,10.34
2017-11-14T07:37:47.548Z,10.48
2017-11-14T07:38:28.161Z,10.56
2017-11-14T07:39:08.675Z,10.59
2017-11-14T07:39:49.315Z,10.55
2017-11-14T07:40:29.735Z,10.51
2017-11-14T07:41:10.245Z,10.53
2017-11-14T07:41:50.820Z,10.52
2017-11-14T07:42:31.337Z,10.51
2017-11-14T07:43:12.048Z,10.42
2017-11-14T07:43:52.614Z,10.36
2017-11-14T07:44:33.106Z,10.41
2017-11-14T07:45:13.679Z,10.32
2017-11-14T07:45:54.227Z,10.3
2017-11-14T07:46:34.723Z,10.38
2017-11-14T07:47:15.306Z,10.38
2017-11-14T07:47:55.819Z,10.29
2017-11-14T07:48:36.413Z,10.27
2017-11-14T07:49:17.058Z,10.34
2017-11-14T07:49:57.655Z,10.34
2017-11-14T07:50:38.333Z,10.38
2017-11-14T07:51:19.021Z,10.33
2017-11-14T07:51:59.592Z,10.32
2017-11-14T07:52:40.089Z,10.36
2017-11-14T07:53:20.949Z,10.41
2017-11-14T07:54:01.809Z,10.47
2017-11-14T07:54:42.606Z,10.41
2017-11-14T07:55:23.122Z,10.36
2017-11-14T07:56:03.712Z,10.3
2017-11-14T07:56:44.257Z,10.18
2017-11-14T07:57:24.741Z,10.29
2017-11-14T07:58:05.259Z,10.23
2017-11-14T07:58:45.858Z,10.23
2017-11-14T07:59:26.517Z,10.25
2017-11-14T08:00:07.163Z,10.34
2017-11-14T08:00:47.708Z,10.18
2017-11-14T08:01:28.244Z,10.29
2017-11-14T08:02:08.784Z,10.3
2017-11-14T08:02:49.372Z,10.26
2017-11-14T08:03:29.915Z,10.42
2017-11-14T08:04:10.740Z,10.32
2017-11-14T08:04:51.322Z,10.45
2017-11-14T08:05:31.892Z,10.36
2017-11-14T08:06:12.485Z,10.34
2017-11-14T08:06:53.139Z,10.33
2017-11-14T08:07:33.753Z,10.51
2017-11-14T08:08:14.271Z,10.82
2017-11-14T08:08:54.781Z,10.97
2017-11-14T08:09:35.341Z,10.81
2017-11-14T08:10:15.904Z,10.88
2017-11-14T08:10:56.492Z,10.86
2017-11-14T08:11:37.045Z,10.79
2017-11-14T08:12:17.605Z,10.73
2017-11-14T08:12:58.115Z,10.91
2017-11-14T08:13:38.687Z,10.82
2017-11-14T08:14:19.253Z,10.84
2017-11-14T08:14:59.798Z,10.7
2017-11-14T08:15:40.302Z,10.6
2017-11-14T08:16:20.889Z,10.52
2017-11-14T08:17:01.413Z,10.55
2017-11-14T08:17:41.951Z,10.48
2017-11-14T08:18:22.448Z,10.61
2017-11-14T08:19:03.044Z,10.64
2017-11-14T08:19:43.810Z,10.82
2017-11-14T08:20:24.394Z,10.88
2017-11-14T08:21:04.984Z,10.91
2017-11-14T08:21:45.467Z,10.91
2017-11-14T08:22:26.026Z,11.03
2017-11-14T08:23:06.574Z,11.22
2017-11-14T08:23:47.165Z,10.84
2017-11-14T08:24:27.671Z,10.74
2017-11-14T08:25:08.318Z,10.88
2017-11-14T08:25:48.806Z,10.86
2017-11-14T08:26:29.345Z,10.91
2017-11-14T08:27:09.866Z,10.99
2017-11-14T08:27:50.383Z,10.97
2017-11-14T08:28:30.964Z,10.99
2017-11-14T08:29:11.511Z,10.88
2017-11-14T08:29:52.067Z,11
2017-11-14T08:30:32.598Z,11.02
2017-11-14T08:31:13.148Z,11.04
2017-11-14T08:31:53.725Z,11.03
2017-11-14T08:32:34.251Z,10.96
2017-11-14T08:33:14.783Z,11.04
2017-11-14T08:33:55.290Z,10.97
2017-11-14T08:34:35.807Z,10.99
2017-11-14T08:35:16.367Z,11.1
2017-11-14T08:35:56.932Z,11.21
2017-11-14T08:36:37.467Z,11.32
2017-11-14T08:37:18.025Z,11.25
2017-11-14T08:37:58.550Z,11.33
2017-11-14T08:38:39.242Z,11.28
2017-11-14T08:39:19.744Z,10.96
2017-11-14T08:40:00.330Z,11.02
2017-11-14T08:40:40.786Z,11.03
2017-11-14T08:41:21.435Z,11.07
2017-11-14T08:42:02.013Z,10.99
2017-11-14T08:42:42.571Z,10.94
2017-11-14T08:43:23.152Z,10.94
2017-11-14T08:44:03.679Z,10.96
2017-11-14T08:44:44.273Z,10.89
2017-11-14T08:45:24.909Z,10.97
2017-11-14T08:46:05.520Z,10.92
2017-11-14T08:46:45.979Z,10.96
2017-11-14T08:47:26.547Z,10.94
2017-11-14T08:48:07.103Z,10.99
2017-11-14T08:48:47.664Z,11.03
2017-11-14T08:49:28.162Z,11.03
2017-11-14T08:50:08.726Z,11.03
2017-11-14T08:50:49.284Z,10.97
2017-11-14T08:51:29.851Z,11.1
2017-11-14T08:52:10.368Z,11.11
2017-11-14T08:52:50.873Z,11.14
2017-11-14T08:53:31.439Z,11.32
2017-11-14T08:54:11.975Z,11.33
2017-11-14T08:54:52.591Z,11.28
2017-11-14T08:55:33.132Z,11.37
2017-11-14T08:56:13.761Z,11.44
2017-11-14T08:56:54.270Z,11.37
2017-11-14T08:57:34.786Z,11.51
2017-11-14T08:58:15.386Z,11.57
2017-11-14T08:58:55.934Z,11.6
2017-11-14T08:59:36.523Z,11.65